createdAt,value
2018-09-20T00:00:07.672Z,21.29
2018-09-20T00:02:37.256Z,21.26
2018-09-20T00:05:05.862Z,21.24
2018-09-20T00:07:34.595Z,21.26
2018-09-20T00:10:03.635Z,21.22
2018-09-20T00:12:32.191Z,21.22
2018-09-20T00:15:01.307Z,21.22
2018-09-20T00:17:29.860Z,21.22
2018-09-20T00:19:58.400Z,21.22
2018-09-20T00:22:27.016Z,21.19
2018-09-20T00:24:55.688Z,21.14
2018-09-20T00:27:24.296Z,21.14
2018-09-20T00:29:52.891Z,21.10
2018-09-20T00:32:21.544Z,21.12
2018-09-20T00:34:50.088Z,21.14
2018-09-20T00:37:19.123Z,21.16
2018-09-20T00:39:48.160Z,21.18
2018-09-20T00:42:16.707Z,21.16
2018-09-20T00:44:45.315Z,21.14
2018-09-20T00:47:13.859Z,21.13
2018-09-20T00:49:42.416Z,21.14
2018-09-20T00:52:11.086Z,21.14
2018-09-20T00:54:39.645Z,21.12
2018-09-20T00:57:08.208Z,21.13
2018-09-20T00:59:36.859Z,21.13
2018-09-20T01:02:05.521Z,21.13
2018-09-20T01:04:34.263Z,21.13
2018-09-20T01:07:03.308Z,21.09
2018-09-20T01:09:31.867Z,21.09
2018-09-20T01:12:00.843Z,21.08
2018-09-20T01:14:29.459Z,21.09
2018-09-20T01:16:58.022Z,21.11
2018-09-20T01:19:26.563Z,21.10
2018-09-20T01:21:55.244Z,21.12
2018-09-20T01:24:23.799Z,21.10
2018-09-20T01:26:52.369Z,21.10
2018-09-20T01:29:21.477Z,21.11
2018-09-20T01:31:50.107Z,21.11
2018-09-20T01:34:18.659Z,21.13
2018-09-20T01:36:47.648Z,21.13
2018-09-20T01:39:17.022Z,21.09
2018-09-20T01:41:45.615Z,21.06
2018-09-20T01:44:14.627Z,21.05
2018-09-20T01:46:43.211Z,21.00
2018-09-20T01:49:11.776Z,20.98
2018-09-20T01:51:41.372Z,20.94
2018-09-20T01:54:09.919Z,20.88
2018-09-20T01:56:38.568Z,20.84
2018-09-20T01:59:07.668Z,20.81
2018-09-20T02:01:36.211Z,20.80
2018-09-20T02:04:04.792Z,20.80
2018-09-20T02:06:33.452Z,20.79
2018-09-20T02:09:02.020Z,20.82
2018-09-20T02:11:30.579Z,20.81
2018-09-20T02:13:59.171Z,20.80
2018-09-20T02:16:27.730Z,20.85
2018-09-20T02:18:56.283Z,20.89
2018-09-20T02:21:24.851Z,20.88
2018-09-20T02:23:53.411Z,20.84
2018-09-20T02:26:22.048Z,20.76
2018-09-20T02:28:50.671Z,20.69
2018-09-20T02:31:19.271Z,20.55
2018-09-20T02:33:47.962Z,20.53
2018-09-20T02:36:16.672Z,20.51
2018-09-20T02:38:45.571Z,20.50
2018-09-20T02:41:14.528Z,20.49
2018-09-20T02:43:43.208Z,20.49
2018-09-20T02:46:11.776Z,20.45
2018-09-20T02:48:40.345Z,20.42
2018-09-20T02:51:09.287Z,20.39
2018-09-20T02:53:37.848Z,20.38
2018-09-20T02:56:06.411Z,20.38
2018-09-20T02:58:35.491Z,20.38
2018-09-20T03:01:04.052Z,20.37
2018-09-20T03:03:32.967Z,20.33
2018-09-20T03:06:01.909Z,20.31
2018-09-20T03:08:30.456Z,20.27
2018-09-20T03:10:59.111Z,20.24
2018-09-20T03:13:28.123Z,20.22
2018-09-20T03:15:56.711Z,20.21
2018-09-20T03:18:25.259Z,20.21
2018-09-20T03:20:54.067Z,20.19
2018-09-20T03:23:23.096Z,20.19
2018-09-20T03:25:52.076Z,20.19
2018-09-20T03:28:20.760Z,20.17
2018-09-20T03:30:49.768Z,20.15
2018-09-20T03:33:18.211Z,20.11
2018-09-20T03:35:46.791Z,20.05
2018-09-20T03:38:15.340Z,19.99
2018-09-20T03:40:43.904Z,19.97
2018-09-20T03:43:12.920Z,19.95
2018-09-20T03:45:41.464Z,19.87
2018-09-20T03:48:10.019Z,19.88
2018-09-20T03:50:38.676Z,19.89
2018-09-20T03:53:07.220Z,19.95
2018-09-20T03:55:35.769Z,19.94
2018-09-20T03:58:04.379Z,19.92
2018-09-20T04:00:33.679Z,19.89
2018-09-20T04:03:02.371Z,19.85
2018-09-20T04:05:31.370Z,19.83
2018-09-20T04:07:59.911Z,19.79
2018-09-20T04:10:28.468Z,19.78
2018-09-20T04:12:57.167Z,19.75
2018-09-20T04:15:25.796Z,19.72
2018-09-20T04:17:54.347Z,19.69
2018-09-20T04:20:23.423Z,19.68
2018-09-20T04:22:51.991Z,19.60
2018-09-20T04:25:20.560Z,19.58
2018-09-20T04:27:49.535Z,19.60
2018-09-20T04:30:18.452Z,19.57
2018-09-20T04:32:47.464Z,19.58
2018-09-20T04:35:16.151Z,19.56
2018-09-20T04:37:44.716Z,19.55
2018-09-20T04:40:13.279Z,19.51
2018-09-20T04:42:41.984Z,19.52
2018-09-20T04:45:10.555Z,19.51
2018-09-20T04:47:39.195Z,19.52
2018-09-20T04:50:08.367Z,19.51
2018-09-20T04:52:36.982Z,19.47
2018-09-20T04:55:06.272Z,19.46
2018-09-20T04:57:34.952Z,19.50
2018-09-20T05:00:03.627Z,19.56
2018-09-20T05:02:33.707Z,19.58
2018-09-20T05:05:02.376Z,19.61
2018-09-20T05:07:30.952Z,19.60
2018-09-20T05:09:59.530Z,19.60
2018-09-20T05:12:28.215Z,19.58
2018-09-20T05:14:57.300Z,19.56
2018-09-20T05:17:25.948Z,19.56
2018-09-20T05:19:54.551Z,19.60
2018-09-20T05:22:23.103Z,19.61
2018-09-20T05:24:51.783Z,19.60
2018-09-20T05:27:20.592Z,19.59
2018-09-20T05:29:49.274Z,19.59
2018-09-20T05:32:17.835Z,19.60
2018-09-20T05:34:47.188Z,19.61
2018-09-20T05:37:15.744Z,19.62
2018-09-20T05:39:44.308Z,19.67
2018-09-20T05:42:13.007Z,19.69
2018-09-20T05:44:42.086Z,19.71
2018-09-20T05:47:11.060Z,19.73
2018-09-20T05:49:39.668Z,19.86
2018-09-20T05:52:08.251Z,19.91
2018-09-20T05:54:36.807Z,19.97
2018-09-20T05:57:05.478Z,20.04
2018-09-20T05:59:34.044Z,20.10
2018-09-20T06:02:02.614Z,20.19
2018-09-20T06:04:31.200Z,20.29
2018-09-20T06:06:59.772Z,20.44
2018-09-20T06:09:28.324Z,20.57
2018-09-20T06:11:56.908Z,20.76
2018-09-20T06:14:25.491Z,20.92
2018-09-20T06:16:54.039Z,21.14
2018-09-20T06:19:23.306Z,21.32
2018-09-20T06:21:51.855Z,21.53
2018-09-20T06:24:20.435Z,21.75
2018-09-20T06:26:49.091Z,21.99
2018-09-20T06:29:17.667Z,22.16
2018-09-20T06:31:46.252Z,22.39
2018-09-20T06:34:14.911Z,22.53
2018-09-20T06:36:43.478Z,22.68
2018-09-20T06:39:13.170Z,22.79
2018-09-20T06:41:42.480Z,22.99
2018-09-20T06:44:11.032Z,23.21
2018-09-20T06:46:39.728Z,23.38
2018-09-20T06:49:08.739Z,23.53
2018-09-20T06:51:37.303Z,23.57
2018-09-20T06:54:05.852Z,23.77
2018-09-20T06:56:34.497Z,24.05
2018-09-20T06:59:03.011Z,24.11
2018-09-20T07:01:31.564Z,24.03
2018-09-20T07:04:00.251Z,23.97
2018-09-20T07:06:28.899Z,24.04
2018-09-20T07:08:57.480Z,24.04
2018-09-20T07:11:26.164Z,24.12
2018-09-20T07:13:54.723Z,24.32
2018-09-20T07:16:23.614Z,24.38
2018-09-20T07:18:52.215Z,24.46
2018-09-20T07:21:20.812Z,24.47
2018-09-20T07:23:49.380Z,24.53
2018-09-20T07:26:18.092Z,24.83
2018-09-20T07:28:46.672Z,25.03
2018-09-20T07:31:15.283Z,25.39
2018-09-20T07:33:43.952Z,25.73
2018-09-20T07:36:12.524Z,26.01
2018-09-20T07:38:41.543Z,26.29
2018-09-20T07:41:10.127Z,26.55
2018-09-20T07:43:38.739Z,26.84
2018-09-20T07:46:07.380Z,27.06
2018-09-20T07:48:36.414Z,27.45
2018-09-20T07:51:04.971Z,27.60
2018-09-20T07:53:33.638Z,27.75
2018-09-20T07:56:02.275Z,27.93
2018-09-20T07:58:30.880Z,28.01
2018-09-20T08:00:59.460Z,28.20
2018-09-20T08:03:28.089Z,28.35
2018-09-20T08:05:57.207Z,28.55
2018-09-20T08:08:26.203Z,28.87
2018-09-20T08:10:54.861Z,29.07
2018-09-20T08:13:23.409Z,29.42
2018-09-20T08:15:52.891Z,29.36
2018-09-20T08:18:21.509Z,29.26
2018-09-20T08:20:50.108Z,29.58
2018-09-20T08:23:18.675Z,30.08
2018-09-20T08:25:50.715Z,30.33
2018-09-20T08:28:19.280Z,30.46
2018-09-20T08:30:47.843Z,30.60
2018-09-20T08:33:16.439Z,30.85
2018-09-20T08:35:44.984Z,31.17
2018-09-20T08:38:13.540Z,31.57
2018-09-20T08:40:42.219Z,31.91
2018-09-20T08:43:10.764Z,31.97
2018-09-20T08:45:39.326Z,31.25
2018-09-20T08:48:08.960Z,30.99
2018-09-20T08:50:37.531Z,31.55
2018-09-20T08:53:06.143Z,32.03
2018-09-20T08:55:34.834Z,31.98
2018-09-20T08:58:03.780Z,32.32
2018-09-20T09:00:32.332Z,32.23
2018-09-20T09:03:00.923Z,32.54
2018-09-20T09:05:29.484Z,32.77
2018-09-20T09:07:58.051Z,32.65
2018-09-20T09:10:26.643Z,31.86
2018-09-20T09:12:55.192Z,32.21
2018-09-20T09:15:25.984Z,32.33
2018-09-20T09:17:54.600Z,32.58
2018-09-20T09:20:23.164Z,32.93
2018-09-20T09:22:51.740Z,33.44
2018-09-20T09:25:20.292Z,33.83
2018-09-20T09:27:48.884Z,34.04
2018-09-20T09:30:17.917Z,34.36
2018-09-20T09:32:46.460Z,34.60
2018-09-20T09:35:15.016Z,34.88
2018-09-20T09:37:43.674Z,35.13
2018-09-20T09:40:12.652Z,35.39
2018-09-20T09:42:41.208Z,35.39
2018-09-20T09:45:10.363Z,35.65
2018-09-20T09:47:38.907Z,35.57
2018-09-20T09:50:07.567Z,35.21
2018-09-20T09:52:36.192Z,35.90
2018-09-20T09:55:05.460Z,36.57
2018-09-20T09:57:34.100Z,36.84
2018-09-20T10:00:02.980Z,36.99
2018-09-20T10:02:31.560Z,37.24
2018-09-20T10:05:00.127Z,37.69
2018-09-20T10:07:29.682Z,37.90
2018-09-20T10:09:58.243Z,38.37
2018-09-20T10:12:26.776Z,38.46
2018-09-20T10:14:55.796Z,38.52
2018-09-20T10:17:24.351Z,37.77
2018-09-20T10:19:52.970Z,38.47
2018-09-20T10:22:21.529Z,38.81
2018-09-20T10:24:50.072Z,38.96
2018-09-20T10:27:18.634Z,38.76
2018-09-20T10:29:48.111Z,39.17
2018-09-20T10:32:17.141Z,39.06
2018-09-20T10:34:45.691Z,38.79
2018-09-20T10:37:14.392Z,38.92
2018-09-20T10:39:42.966Z,38.99
2018-09-20T10:42:11.549Z,38.75
2018-09-20T10:44:40.115Z,38.82
2018-09-20T10:47:08.704Z,37.97
2018-09-20T10:49:37.263Z,37.00
2018-09-20T10:52:05.928Z,37.26
2018-09-20T10:54:34.534Z,37.13
2018-09-20T10:57:03.062Z,37.12
2018-09-20T10:59:32.516Z,36.78
2018-09-20T11:02:01.067Z,36.15
2018-09-20T11:04:29.603Z,35.50
2018-09-20T11:06:58.311Z,35.28
2018-09-20T11:09:26.956Z,34.99
2018-09-20T11:11:55.641Z,34.90
2018-09-20T11:14:24.315Z,35.35
2018-09-20T11:16:53.531Z,36.53
2018-09-20T11:19:22.080Z,37.70
2018-09-20T11:21:50.673Z,39.34
2018-09-20T11:24:19.242Z,40.22
2018-09-20T11:26:50.422Z,41.45
2018-09-20T11:29:19.015Z,43.04
2018-09-20T11:31:47.604Z,43.94
2018-09-20T11:34:16.180Z,44.22
2018-09-20T11:36:44.960Z,44.24
2018-09-20T11:39:14.619Z,44.13
2018-09-20T11:41:43.612Z,43.03
2018-09-20T11:44:12.275Z,43.99
2018-09-20T11:46:41.676Z,43.58
2018-09-20T11:49:10.299Z,43.80
2018-09-20T11:51:39.004Z,42.68
2018-09-20T11:54:07.665Z,42.20
2018-09-20T11:56:36.233Z,43.88
2018-09-20T11:59:04.820Z,44.48
2018-09-20T12:01:33.489Z,43.76
2018-09-20T12:04:02.071Z,41.93
2018-09-20T12:06:30.761Z,39.95
2018-09-20T12:08:59.308Z,38.12
2018-09-20T12:11:27.927Z,37.15
2018-09-20T12:13:56.479Z,36.16
2018-09-20T12:16:25.464Z,35.31
2018-09-20T12:18:54.154Z,34.68
2018-09-20T12:21:22.690Z,34.26
2018-09-20T12:23:51.713Z,34.00
2018-09-20T12:26:20.267Z,33.51
2018-09-20T12:28:48.887Z,33.53
2018-09-20T12:31:17.443Z,33.16
2018-09-20T12:33:46.432Z,32.95
2018-09-20T12:36:15.039Z,32.85
2018-09-20T12:38:43.706Z,32.86
2018-09-20T12:41:12.278Z,32.79
2018-09-20T12:43:41.627Z,32.83
2018-09-20T12:46:10.164Z,32.89
2018-09-20T12:48:38.839Z,32.74
2018-09-20T12:51:08.037Z,32.70
2018-09-20T12:53:36.983Z,32.63
2018-09-20T12:56:05.565Z,32.65
2018-09-20T12:58:38.176Z,32.57
2018-09-20T13:01:07.172Z,32.65
2018-09-20T13:03:35.724Z,32.65
2018-09-20T13:06:04.335Z,32.67
2018-09-20T13:08:33.319Z,32.48
2018-09-20T13:11:02.284Z,32.44
2018-09-20T13:13:30.839Z,32.50
2018-09-20T13:15:59.496Z,32.55
2018-09-20T13:18:28.036Z,32.51
2018-09-20T13:20:56.611Z,32.24
2018-09-20T13:23:25.188Z,32.42
2018-09-20T13:25:53.888Z,32.52
2018-09-20T13:28:22.538Z,32.40
2018-09-20T13:30:51.564Z,32.42
2018-09-20T13:33:20.100Z,32.27
2018-09-20T13:35:48.659Z,32.27
2018-09-20T13:38:18.035Z,32.11
2018-09-20T13:41:25.359Z,32.19
2018-09-20T13:43:54.084Z,32.12
2018-09-20T13:46:22.656Z,32.16
2018-09-20T13:48:51.296Z,32.00
2018-09-20T13:51:19.892Z,31.96
2018-09-20T13:53:48.485Z,32.04
2018-09-20T13:56:17.562Z,32.04
2018-09-20T13:58:48.300Z,32.03
2018-09-20T14:01:17.763Z,31.91
2018-09-20T14:03:46.524Z,31.97
2018-09-20T14:06:15.482Z,31.90
2018-09-20T14:08:44.077Z,31.82
2018-09-20T14:11:13.036Z,31.88
2018-09-20T14:13:41.830Z,31.93
2018-09-20T14:16:10.460Z,31.97
2018-09-20T14:18:39.106Z,31.91
2018-09-20T14:21:08.321Z,31.79
2018-09-20T14:23:36.907Z,31.78
2018-09-20T14:26:05.532Z,31.83
2018-09-20T14:28:34.197Z,31.69
2018-09-20T14:31:02.900Z,31.56
2018-09-20T14:33:31.496Z,31.39
2018-09-20T14:36:00.252Z,31.35
2018-09-20T14:38:29.268Z,31.46
2018-09-20T14:40:58.244Z,31.50
2018-09-20T14:43:26.991Z,31.41
2018-09-20T14:45:55.604Z,31.19
2018-09-20T14:48:24.197Z,30.99
2018-09-20T14:50:52.843Z,31.06
2018-09-20T14:53:21.536Z,31.12
2018-09-20T14:55:50.128Z,31.24
2018-09-20T14:58:18.841Z,31.25
2018-09-20T15:00:47.463Z,31.22
2018-09-20T15:03:16.069Z,31.35
2018-09-20T15:05:44.779Z,31.29
2018-09-20T15:08:13.396Z,31.40
2018-09-20T15:10:41.992Z,31.42
2018-09-20T15:13:11.196Z,31.40
2018-09-20T15:15:39.788Z,31.33
2018-09-20T15:18:08.379Z,31.26
2018-09-20T15:20:37.076Z,31.21
2018-09-20T15:23:05.648Z,31.19
2018-09-20T15:25:34.227Z,31.08
2018-09-20T15:28:02.846Z,30.98
2018-09-20T15:30:31.472Z,31.15
2018-09-20T15:33:00.094Z,31.22
2018-09-20T15:35:28.805Z,31.22
2018-09-20T15:37:57.529Z,31.21
2018-09-20T15:40:26.144Z,31.26
2018-09-20T15:42:54.796Z,31.13
2018-09-20T15:45:24.328Z,31.03
2018-09-20T15:47:53.633Z,30.80
2018-09-20T15:50:22.357Z,30.74
2018-09-20T15:52:51.396Z,30.59
2018-09-20T15:55:21.077Z,30.51
2018-09-20T15:57:50.233Z,30.41
2018-09-20T16:00:18.889Z,30.45
2018-09-20T16:02:47.516Z,30.38
2018-09-20T16:05:16.164Z,30.24
2018-09-20T16:07:44.785Z,30.22
2018-09-20T16:10:13.736Z,30.19
2018-09-20T16:12:42.831Z,30.11
2018-09-20T16:15:11.388Z,29.91
2018-09-20T16:17:39.990Z,29.94
2018-09-20T16:20:09.097Z,29.95
2018-09-20T16:22:38.263Z,29.94
2018-09-20T16:25:07.429Z,29.89
2018-09-20T16:27:36.856Z,29.83
2018-09-20T16:30:20.160Z,29.79
2018-09-20T16:33:01.516Z,29.79
2018-09-20T16:35:41.260Z,29.73
2018-09-20T16:41:35.038Z,29.61
2018-09-20T16:44:03.744Z,29.61
2018-09-20T16:46:33.341Z,29.56
2018-09-20T16:49:02.039Z,29.56
2018-09-20T16:51:30.629Z,29.54
2018-09-20T16:53:59.760Z,29.41
2018-09-20T16:56:28.772Z,29.39
2018-09-20T16:58:57.372Z,29.32
2018-09-20T17:01:26.033Z,29.31
2018-09-20T17:03:54.777Z,29.17
2018-09-20T17:06:23.398Z,29.15
2018-09-20T17:08:52.125Z,29.10
2018-09-20T17:11:20.752Z,29.09
2018-09-20T17:13:49.335Z,29.03
2018-09-20T17:16:18.340Z,29.00
2018-09-20T17:18:47.012Z,28.94
2018-09-20T17:21:15.610Z,28.79
2018-09-20T17:23:44.240Z,28.75
2018-09-20T17:26:12.935Z,28.69
2018-09-20T17:28:41.520Z,28.62
2018-09-20T17:31:10.160Z,28.57
2018-09-20T17:33:38.799Z,28.54
2018-09-20T17:36:07.776Z,28.48
2018-09-20T17:38:38.379Z,28.45
2018-09-20T17:41:12.479Z,28.40
2018-09-20T17:43:58.180Z,28.31
2018-09-20T17:46:26.752Z,28.26
2018-09-20T17:48:55.325Z,28.29
2018-09-20T17:51:24.296Z,28.28
2018-09-20T17:53:53.232Z,28.28
2018-09-20T17:56:22.225Z,28.20
2018-09-20T17:58:51.319Z,28.18
2018-09-20T18:01:19.909Z,28.08
2018-09-20T18:03:48.480Z,27.98
2018-09-20T18:06:17.487Z,27.94
2018-09-20T18:08:46.089Z,27.85
2018-09-20T18:11:14.696Z,27.79
2018-09-20T18:13:43.390Z,27.64
2018-09-20T18:16:11.996Z,27.65
2018-09-20T18:18:40.572Z,27.61
2018-09-20T18:21:09.228Z,27.43
2018-09-20T18:23:37.798Z,27.42
2018-09-20T18:26:06.382Z,27.41
2018-09-20T18:28:35.076Z,27.35
2018-09-20T18:31:03.685Z,27.33
2018-09-20T18:33:32.260Z,27.20
2018-09-20T18:36:00.868Z,27.10
2018-09-20T18:38:29.439Z,26.96
2018-09-20T18:40:58.041Z,26.89
2018-09-20T18:43:26.680Z,26.88
2018-09-20T18:45:55.716Z,26.92
2018-09-20T18:48:24.304Z,26.80
2018-09-20T18:50:52.924Z,26.66
2018-09-20T18:53:21.484Z,26.58
2018-09-20T18:55:50.083Z,26.47
2018-09-20T18:58:18.832Z,26.36
2018-09-20T19:00:47.423Z,26.35
2018-09-20T19:03:16.096Z,26.32
2018-09-20T19:05:44.736Z,26.36
2018-09-20T19:08:13.395Z,26.37
2018-09-20T19:10:41.984Z,26.35
2018-09-20T19:13:10.604Z,26.36
2018-09-20T19:15:39.240Z,26.31
2018-09-20T19:18:07.874Z,26.22
2018-09-20T19:20:36.631Z,26.14
2018-09-20T19:23:05.249Z,26.03
2018-09-20T19:25:33.872Z,25.99
2018-09-20T19:28:02.559Z,25.97
2018-09-20T19:30:31.180Z,25.94
2018-09-20T19:32:59.771Z,25.91
2018-09-20T19:35:28.477Z,25.86
2018-09-20T19:37:57.069Z,25.81
2018-09-20T19:40:25.788Z,25.76
2018-09-20T19:42:54.438Z,25.74
2018-09-20T19:45:23.020Z,25.69
2018-09-20T19:47:51.672Z,25.64
2018-09-20T19:50:20.687Z,25.58
2018-09-20T19:52:49.268Z,25.49
2018-09-20T19:55:17.869Z,25.38
2018-09-20T19:57:47.080Z,25.30
2018-09-20T20:00:15.705Z,25.23
2018-09-20T20:02:44.276Z,25.17
2018-09-20T20:05:12.928Z,25.13
2018-09-20T20:07:41.569Z,25.09
2018-09-20T20:10:10.148Z,25.04
2018-09-20T20:12:38.851Z,24.86
2018-09-20T20:15:07.456Z,24.81
2018-09-20T20:17:36.012Z,24.76
2018-09-20T20:20:04.818Z,24.73
2018-09-20T20:22:33.826Z,24.72
2018-09-20T20:25:02.399Z,24.65
2018-09-20T20:27:31.085Z,24.56
2018-09-20T20:29:59.669Z,24.49
2018-09-20T20:32:28.282Z,24.47
2018-09-20T20:34:56.940Z,24.41
2018-09-20T20:37:25.533Z,24.37
2018-09-20T20:39:54.169Z,24.31
2018-09-20T20:42:22.916Z,24.26
2018-09-20T20:44:51.960Z,24.20
2018-09-20T20:47:20.553Z,24.15
2018-09-20T20:49:49.176Z,24.12
2018-09-20T20:52:17.760Z,24.08
2018-09-20T20:54:46.372Z,23.99
2018-09-20T20:57:14.998Z,23.89
2018-09-20T20:59:43.584Z,23.80
2018-09-20T21:02:12.759Z,23.74
2018-09-20T21:04:41.390Z,23.67
2018-09-20T21:07:10.053Z,23.61
2018-09-20T21:09:38.644Z,23.53
2018-09-20T21:12:07.272Z,23.50
2018-09-20T21:14:35.889Z,23.42
2018-09-20T21:17:04.514Z,23.39
2018-09-20T21:19:33.221Z,23.37
2018-09-20T21:22:01.797Z,23.31
2018-09-20T21:24:30.707Z,23.25
2018-09-20T21:26:59.351Z,23.25
2018-09-20T21:29:27.941Z,23.27
2018-09-20T21:31:56.624Z,23.22
2018-09-20T21:34:25.316Z,23.28
2018-09-20T21:36:53.973Z,23.26
2018-09-20T21:39:22.548Z,23.18
2018-09-20T21:41:51.165Z,23.12
2018-09-20T21:44:19.775Z,23.09
2018-09-20T21:46:48.359Z,23.10
2018-09-20T21:49:16.987Z,23.07
2018-09-20T21:51:45.576Z,23.08
2018-09-20T21:54:14.161Z,23.00
2018-09-20T21:56:42.836Z,22.95
2018-09-20T21:59:11.431Z,22.91
2018-09-20T22:01:45.203Z,22.77
2018-09-20T22:04:13.848Z,22.71
2018-09-20T22:09:12.195Z,22.62
2018-09-20T22:11:41.464Z,22.56
2018-09-20T22:14:10.068Z,22.51
2018-09-20T22:16:39.268Z,22.45
2018-09-20T22:19:07.860Z,22.38
2018-09-20T22:21:36.446Z,22.29
2018-09-20T22:24:05.099Z,22.26
2018-09-20T22:26:33.716Z,22.23
2018-09-20T22:29:02.499Z,22.22
2018-09-20T22:31:31.120Z,22.20
2018-09-20T22:33:59.732Z,22.20
2018-09-20T22:36:28.300Z,22.17
2018-09-20T22:38:56.992Z,22.15
2018-09-20T22:41:25.600Z,22.06
2018-09-20T22:43:54.182Z,22.05
2018-09-20T22:46:22.832Z,21.98
2018-09-20T22:48:51.465Z,21.95
2018-09-20T22:51:20.068Z,21.90
2018-09-20T22:53:48.704Z,21.90
2018-09-20T22:56:17.299Z,21.85
2018-09-20T22:58:45.877Z,21.85
2018-09-20T23:01:17.204Z,21.84
2018-09-20T23:03:46.519Z,21.77
2018-09-20T23:06:15.084Z,21.71
2018-09-20T23:08:43.868Z,21.67
2018-09-20T23:11:12.451Z,21.60
2018-09-20T23:13:41.095Z,21.55
2018-09-20T23:16:09.711Z,21.49
2018-09-20T23:18:38.303Z,21.39
2018-09-20T23:21:06.867Z,21.37
2018-09-20T23:23:35.566Z,21.40
2018-09-20T23:26:04.175Z,21.40
2018-09-20T23:28:32.761Z,21.36
2018-09-20T23:31:01.360Z,21.31
2018-09-20T23:33:30.404Z,21.28
2018-09-20T23:35:59.445Z,21.31
2018-09-20T23:38:28.491Z,21.28
2018-09-20T23:40:57.076Z,21.22
2018-09-20T23:43:25.745Z,21.18
2018-09-20T23:45:54.895Z,21.17
2018-09-20T23:48:23.469Z,21.18
2018-09-20T23:50:52.041Z,21.07
2018-09-20T23:53:20.733Z,21.12
2018-09-20T23:55:49.383Z,21.10
2018-09-20T23:58:17.957Z,21.10
